Time;durP1;ratioP1;P1;durP2;ratioP2;P2;SDS_P1;SDS_P2;PMS_P1;PMS_P2;Temp;Humidity;BMP_temperature;BMP_pressure;BME280_temperature;BME280_humidity;BME280_pressure;Samples;Min_cycle;Max_cycle;Signal;HPM_P1;HPM_P2
2021/10/10 00:02:21;;;;;;;;;26.75;25.00;;;;;12.19;37.09;99788.88;4852582;28;102572;-85
2021/10/10 00:04:49;;;;;;;;;30.50;26.00;;;;;12.18;37.02;99787.19;4825037;28;104447;-84
2021/10/10 00:07:17;;;;;;;;;27.50;23.75;;;;;12.15;36.53;99784.84;4846048;28;102404;-84
2021/10/10 00:09:45;;;;;;;;;30.00;23.50;;;;;12.16;36.58;99788.41;4839787;28;103761;-85
2021/10/10 00:12:15;;;;;;;;;27.25;24.50;;;;;12.14;36.92;99787.72;4860487;28;102362;-85
2021/10/10 00:14:44;;;;;;;;;30.75;26.25;;;;;12.14;37.22;99793.16;4836688;28;107899;-85
2021/10/10 00:17:15;;;;;;;;;29.00;25.50;;;;;12.11;37.03;99785.41;4834685;28;102777;-85
2021/10/10 00:19:44;;;;;;;;;27.00;25.25;;;;;12.10;36.44;99789.13;4839142;28;102234;-85
2021/10/10 00:22:15;;;;;;;;;32.75;29.75;;;;;12.08;36.54;99794.72;4831245;28;102677;-85
2021/10/10 00:24:45;;;;;;;;;26.75;22.75;;;;;12.07;36.97;99793.88;4834498;28;108077;-85
2021/10/10 00:27:14;;;;;;;;;28.75;25.50;;;;;12.07;36.58;99787.59;4833302;28;103023;-85
2021/10/10 00:29:43;;;;;;;;;29.00;24.50;;;;;12.07;36.90;99793.03;4831540;28;104722;-85
2021/10/10 00:32:12;;;;;;;;;30.25;28.00;;;;;12.06;37.02;99797.63;4834585;28;102792;-85
2021/10/10 00:34:42;;;;;;;;;25.25;23.00;;;;;12.03;36.66;99797.13;4837456;28;103459;-85
2021/10/10 00:37:11;;;;;;;;;34.75;28.75;;;;;12.01;37.10;99791.06;4821363;28;102558;-85
2021/10/10 00:39:40;;;;;;;;;27.50;24.00;;;;;12.01;36.98;99797.31;4812286;28;102536;-85
2021/10/10 00:42:09;;;;;;;;;28.75;24.75;;;;;12.01;36.84;99788.34;4846866;28;102701;-85
2021/10/10 00:44:38;;;;;;;;;25.75;23.00;;;;;11.99;36.99;99788.50;4835762;28;103675;-85
2021/10/10 00:47:07;;;;;;;;;22.50;15.75;;;;;11.99;37.07;99784.97;4836928;28;103167;-85
2021/10/10 00:49:35;;;;;;;;;28.00;25.00;;;;;11.99;37.24;99790.38;4828012;28;102858;-83
2021/10/10 00:52:05;;;;;;;;;29.00;24.00;;;;;11.96;36.60;99788.03;4837721;28;103524;-85
2021/10/10 00:54:32;;;;;;;;;28.00;24.25;;;;;11.95;36.91;99789.91;4820719;28;106969;-85
2021/10/10 00:57:00;;;;;;;;;28.00;23.50;;;;;11.94;36.24;99787.38;4839437;28;103796;-85
2021/10/10 00:59:27;;;;;;;;;32.50;26.75;;;;;11.94;36.98;99787.38;4839386;28;102648;-85
2021/10/10 01:01:54;;;;;;;;;29.25;24.75;;;;;11.91;36.77;99785.88;4812707;28;102477;-85
2021/10/10 01:04:21;;;;;;;;;25.25;23.25;;;;;11.90;36.97;99786.03;4826882;28;104219;-84
2021/10/10 01:06:48;;;;;;;;;26.75;23.75;;;;;11.92;36.67;99781.31;4816525;28;107630;-85
2021/10/10 01:09:15;;;;;;;;;24.00;19.25;;;;;11.88;37.14;99777.28;4784221;28;102544;-85
2021/10/10 01:11:43;;;;;;;;;26.25;21.75;;;;;11.90;37.00;99776.06;4801151;28;103216;-85
2021/10/10 01:14:11;;;;;;;;;26.00;23.00;;;;;11.88;36.95;99771.84;4827954;28;104076;-85
2021/10/10 01:16:38;;;;;;;;;22.75;21.75;;;;;11.88;36.84;99774.56;4846407;28;102450;-85
2021/10/10 01:19:07;;;;;;;;;24.75;21.00;;;;;11.86;37.12;99772.03;4856264;28;104106;-85
2021/10/10 01:21:34;;;;;;;;;27.00;22.50;;;;;11.84;37.05;99771.34;4862467;28;102981;-85
2021/10/10 01:24:03;;;;;;;;;27.25;23.25;;;;;11.81;36.89;99766.28;4853041;28;104195;-85
2021/10/10 01:26:34;;;;;;;;;24.75;23.00;;;;;11.82;36.59;99772.56;4855173;28;102378;-85
2021/10/10 01:29:02;;;;;;;;;23.25;21.25;;;;;11.80;36.22;99775.44;4857195;28;102482;-84
2021/10/10 01:31:29;;;;;;;;;22.25;21.00;;;;;11.81;36.65;99771.72;4852557;28;102672;-85
2021/10/10 01:33:56;;;;;;;;;28.50;25.00;;;;;11.81;36.92;99769.00;4857177;28;105410;-85
2021/10/10 01:36:23;;;;;;;;;19.50;14.50;;;;;11.83;36.28;99766.97;4838655;28;103447;-84
2021/10/10 01:38:50;;;;;;;;;20.75;20.00;;;;;11.81;36.88;99765.44;4855185;28;103476;-85
2021/10/10 01:41:17;;;;;;;;;26.75;21.25;;;;;11.78;36.83;99763.97;4861774;28;103613;-85
2021/10/10 01:43:44;;;;;;;;;25.00;20.50;;;;;11.77;36.51;99761.41;4858367;28;103473;-85
2021/10/10 01:46:11;;;;;;;;;23.75;21.25;;;;;11.77;36.87;99759.56;4832090;28;103908;-85
2021/10/10 01:48:38;;;;;;;;;22.75;20.50;;;;;11.76;36.40;99752.44;4843921;28;103456;-85
2021/10/10 01:51:05;;;;;;;;;23.25;19.75;;;;;11.73;36.85;99757.38;4866073;28;103546;-85
2021/10/10 01:53:32;;;;;;;;;28.50;21.00;;;;;11.73;37.07;99754.66;4854464;28;104081;-85
2021/10/10 01:55:59;;;;;;;;;26.25;20.75;;;;;11.72;36.77;99761.06;4850252;28;103798;-85
2021/10/10 01:58:26;;;;;;;;;18.00;16.00;;;;;11.70;36.47;99747.72;4864771;28;102591;-85
2021/10/10 02:00:53;;;;;;;;;24.75;23.00;;;;;11.69;36.77;99747.91;4857048;28;103805;-84
2021/10/10 02:03:20;;;;;;;;;25.25;19.75;;;;;11.68;36.78;99752.47;4853901;28;104075;-85
2021/10/10 02:05:47;;;;;;;;;23.75;20.75;;;;;11.66;37.02;99756.41;4861572;28;102240;-85
2021/10/10 02:08:14;;;;;;;;;20.75;19.25;;;;;11.65;36.82;99752.84;4842767;28;102661;-85
2021/10/10 02:10:41;;;;;;;;;25.50;20.25;;;;;11.61;36.56;99746.94;4851535;28;104950;-85
2021/10/10 02:13:08;;;;;;;;;26.50;21.00;;;;;11.59;37.30;99754.41;4840800;28;104357;-85
2021/10/10 02:15:38;;;;;;;;;18.25;17.50;;;;;11.63;36.80;99754.88;4864483;28;103796;-85
2021/10/10 02:18:06;;;;;;;;;23.00;21.50;;;;;11.59;36.94;99746.25;4842346;28;102527;-85
2021/10/10 02:20:33;;;;;;;;;28.50;22.00;;;;;11.60;36.84;99758.78;4846265;28;102413;-85
2021/10/10 02:23:00;;;;;;;;;22.00;19.75;;;;;11.56;36.64;99748.50;4842037;28;104267;-85
2021/10/10 02:25:29;;;;;;;;;20.00;18.50;;;;;11.56;37.05;99741.22;4838282;28;102698;-85
2021/10/10 02:27:56;;;;;;;;;21.75;19.50;;;;;11.56;36.48;99738.50;4847361;28;111550;-85
2021/10/10 02:30:23;;;;;;;;;27.50;21.00;;;;;11.53;36.61;99730.72;4847470;28;102382;-85
2021/10/10 02:32:50;;;;;;;;;21.00;18.00;;;;;11.54;36.70;99735.13;4843422;28;103995;-86
2021/10/10 02:35:17;;;;;;;;;21.75;19.00;;;;;11.53;36.87;99725.31;4841367;28;102459;-85
2021/10/10 02:37:44;;;;;;;;;22.50;19.75;;;;;11.52;36.63;99729.06;4840772;28;102548;-85
2021/10/10 02:40:11;;;;;;;;;23.00;19.50;;;;;11.48;36.95;99719.59;4839170;28;106225;-85
2021/10/10 02:42:38;;;;;;;;;21.25;19.50;;;;;11.49;36.79;99726.69;4844931;28;104589;-85
2021/10/10 02:45:06;;;;;;;;;22.75;19.50;;;;;11.48;36.86;99733.13;4842282;28;103671;-85
2021/10/10 02:47:33;;;;;;;;;26.75;20.75;;;;;11.45;36.74;99722.66;4838863;28;102191;-85
2021/10/10 02:50:00;;;;;;;;;19.25;18.75;;;;;11.46;36.70;99723.50;4839951;28;102171;-85
2021/10/10 02:52:27;;;;;;;;;19.00;17.50;;;;;11.44;36.67;99729.09;4844288;28;104012;-84
2021/10/10 02:54:54;;;;;;;;;24.50;18.25;;;;;11.45;36.50;99724.53;4841543;28;102721;-85
2021/10/10 02:57:21;;;;;;;;;20.25;18.25;;;;;11.44;36.82;99722.81;4845134;28;102321;-85
2021/10/10 02:59:48;;;;;;;;;22.75;21.25;;;;;11.43;36.69;99723.88;4844875;28;103059;-85
2021/10/10 03:02:15;;;;;;;;;19.50;16.50;;;;;11.40;36.48;99722.34;4841281;28;104081;-85
2021/10/10 03:04:42;;;;;;;;;26.75;19.25;;;;;11.40;36.83;99719.63;4844394;28;104487;-86
2021/10/10 03:07:09;;;;;;;;;21.75;19.50;;;;;11.35;37.10;99727.44;4845881;28;102474;-85
2021/10/10 03:09:36;;;;;;;;;22.75;18.25;;;;;11.36;37.31;99728.28;4839366;28;102608;-85
2021/10/10 03:12:03;;;;;;;;;19.25;17.50;;;;;11.40;37.05;99724.22;4848226;28;103967;-85
2021/10/10 03:14:30;;;;;;;;;28.00;25.50;;;;;11.41;37.09;99726.75;4849153;28;102527;-85
2021/10/10 03:16:57;;;;;;;;;25.75;20.25;;;;;11.43;36.73;99719.31;4848073;28;105019;-85
2021/10/10 03:19:24;;;;;;;;;21.25;17.50;;;;;11.46;36.88;99721.63;4855874;28;102247;-85
2021/10/10 03:21:51;;;;;;;;;21.25;17.00;;;;;11.46;37.25;99715.38;4864892;28;104279;-85
2021/10/10 03:24:18;;;;;;;;;25.25;16.75;;;;;11.46;36.80;99712.66;4859859;28;102560;-85
2021/10/10 03:26:45;;;;;;;;;20.50;18.50;;;;;11.48;36.76;99719.59;4858495;28;104158;-86
2021/10/10 03:29:12;;;;;;;;;18.25;17.00;;;;;11.48;37.35;99714.16;4864125;28;102452;-85
2021/10/10 03:31:39;;;;;;;;;22.25;18.00;;;;;11.48;37.32;99711.44;4859760;28;104029;-85
2021/10/10 03:34:06;;;;;;;;;21.50;18.00;;;;;11.47;36.96;99703.53;4855588;28;103427;-85
2021/10/10 03:36:33;;;;;;;;;20.00;18.25;;;;;11.48;36.64;99705.22;4867312;28;102118;-85
2021/10/10 03:39:00;;;;;;;;;21.75;19.25;;;;;11.46;37.10;99708.09;4842836;28;102515;-85
2021/10/10 03:41:27;;;;;;;;;20.50;19.50;;;;;11.44;37.09;99712.84;4859285;28;104054;-85
2021/10/10 03:43:54;;;;;;;;;20.75;18.75;;;;;11.44;37.01;99707.41;4866112;28;102694;-85
2021/10/10 03:46:21;;;;;;;;;20.00;18.25;;;;;11.45;36.84;99705.56;4854640;28;103349;-85
2021/10/10 03:48:48;;;;;;;;;20.50;19.00;;;;;11.42;36.53;99698.66;4853536;28;103014;-85
2021/10/10 03:51:15;;;;;;;;;26.50;20.75;;;;;11.41;37.10;99701.53;4857863;28;104323;-85
2021/10/10 03:54:18;;;;;;;;;26.25;20.25;;;;;11.39;36.67;99701.69;4855817;28;102118;-85
2021/10/10 03:56:35;;;;;;;;;17.25;15.25;;;;;11.39;36.81;99698.19;4855828;28;102182;-85
2021/10/10 03:59:02;;;;;;;;;28.50;22.75;;;;;11.37;36.50;99690.22;4853578;28;103664;-85
2021/10/10 04:01:29;;;;;;;;;24.75;19.50;;;;;11.35;36.72;99686.84;4854682;28;103971;-85
2021/10/10 04:03:57;;;;;;;;;20.75;20.75;;;;;11.34;36.79;99685.19;4859091;28;102449;-85
2021/10/10 04:06:24;;;;;;;;;25.00;18.25;;;;;11.34;36.80;99692.44;4862055;28;102139;-84
2021/10/10 04:08:51;;;;;;;;;22.75;20.50;;;;;11.31;36.51;99688.22;4868937;28;102224;-85
2021/10/10 04:11:18;;;;;;;;;26.50;20.50;;;;;11.31;36.63;99687.38;4855304;28;104028;-85
2021/10/10 04:13:45;;;;;;;;;21.50;18.50;;;;;11.29;36.89;99684.88;4855571;28;102464;-85
2021/10/10 04:16:12;;;;;;;;;22.00;19.50;;;;;11.30;36.67;99674.88;4864215;28;102860;-85
2021/10/10 04:18:39;;;;;;;;;27.00;24.75;;;;;11.28;36.78;99669.63;4846429;28;102256;-85
2021/10/10 04:21:06;;;;;;;;;23.00;20.00;;;;;11.27;36.60;99681.47;4844395;28;104094;-85
2021/10/10 04:23:33;;;;;;;;;28.50;23.50;;;;;11.24;36.53;99681.84;4847803;28;103528;-85
2021/10/10 04:26:00;;;;;;;;;19.50;17.75;;;;;11.23;36.51;99674.75;4838968;28;102224;-85
2021/10/10 04:28:27;;;;;;;;;22.25;20.25;;;;;11.18;36.34;99679.84;4845295;28;102386;-85
2021/10/10 04:30:55;;;;;;;;;22.00;19.50;;;;;11.17;36.45;99678.16;4842867;28;104338;-85
2021/10/10 04:33:21;;;;;;;;;27.00;22.50;;;;;11.20;36.53;99680.53;4848259;28;102077;-85
2021/10/10 04:35:48;;;;;;;;;27.00;24.25;;;;;11.18;36.59;99679.84;4834899;28;102462;-85
2021/10/10 04:38:16;;;;;;;;;26.00;22.00;;;;;11.16;36.85;99685.47;4843894;28;102415;-85
2021/10/10 04:40:43;;;;;;;;;27.75;22.75;;;;;11.13;36.06;99674.97;4815302;28;104222;-85
2021/10/10 04:43:10;;;;;;;;;26.50;22.50;;;;;11.12;36.43;99675.16;4827142;28;102309;-85
2021/10/10 04:45:37;;;;;;;;;23.25;19.00;;;;;11.11;36.16;99668.91;4847790;28;103264;-85
2021/10/10 04:48:05;;;;;;;;;27.25;23.75;;;;;11.10;36.12;99671.78;4841274;28;103448;-85
2021/10/10 04:50:32;;;;;;;;;26.25;22.00;;;;;11.09;36.60;99668.22;4846341;28;104185;-85
2021/10/10 04:52:59;;;;;;;;;25.00;19.75;;;;;11.09;36.50;99673.63;4844107;28;102637;-85
2021/10/10 04:55:26;;;;;;;;;20.75;20.00;;;;;11.07;36.44;99678.41;4841282;28;103125;-85
2021/10/10 04:57:53;;;;;;;;;19.25;16.50;;;;;11.07;36.56;99675.69;4844772;28;103037;-85
2021/10/10 05:00:22;;;;;;;;;18.00;12.00;;;;;11.05;36.68;99674.16;4849100;28;110301;-85
2021/10/10 05:02:49;;;;;;;;;24.25;21.75;;;;;11.04;36.31;99672.47;4843616;28;102700;-85
2021/10/10 05:05:17;;;;;;;;;26.00;20.50;;;;;11.03;36.27;99678.94;4844065;28;102367;-85
2021/10/10 05:07:44;;;;;;;;;21.50;20.75;;;;;11.02;36.31;99682.66;4849242;28;102312;-85
2021/10/10 05:10:11;;;;;;;;;21.75;20.25;;;;;11.01;36.46;99681.81;4844315;28;104140;-85
2021/10/10 05:12:38;;;;;;;;;25.25;21.50;;;;;11.00;36.62;99681.97;4835183;28;102534;-85
2021/10/10 05:15:05;;;;;;;;;26.25;20.75;;;;;10.98;36.21;99684.88;4824331;28;103291;-85
2021/10/10 05:17:33;;;;;;;;;24.50;24.25;;;;;10.96;36.28;99677.94;4855877;28;102447;-85
2021/10/10 05:20:00;;;;;;;;;20.25;19.25;;;;;10.96;36.32;99683.34;4859248;28;104121;-85
2021/10/10 05:22:27;;;;;;;;;26.00;21.00;;;;;10.96;36.49;99677.94;4862189;28;102572;-85
2021/10/10 05:24:57;;;;;;;;;25.25;19.50;;;;;10.95;36.26;99681.66;4866581;28;102233;-85
2021/10/10 05:27:24;;;;;;;;;26.50;20.00;;;;;10.95;36.38;99674.38;4858638;28;103819;-85
2021/10/10 05:29:51;;;;;;;;;24.75;20.50;;;;;10.95;36.29;99681.66;4864549;28;109854;-85
2021/10/10 05:32:18;;;;;;;;;25.00;21.50;;;;;10.93;36.47;99671.03;4863355;28;102840;-85
2021/10/10 05:34:45;;;;;;;;;22.50;20.75;;;;;10.92;36.35;99676.63;4842847;28;107077;-85
2021/10/10 05:37:12;;;;;;;;;23.25;20.00;;;;;10.91;36.44;99675.75;4862768;28;102555;-85
2021/10/10 05:39:39;;;;;;;;;25.25;22.50;;;;;10.90;36.42;99673.22;4849622;28;104118;-85
2021/10/10 05:42:06;;;;;;;;;29.00;24.25;;;;;10.90;36.29;99678.63;4855910;28;104358;-85
2021/10/10 05:44:33;;;;;;;;;25.00;22.00;;;;;10.89;36.34;99682.38;4855707;28;102541;-85
2021/10/10 05:47:00;;;;;;;;;23.50;20.00;;;;;10.87;36.21;99685.25;4857523;28;102702;-85
2021/10/10 05:49:27;;;;;;;;;19.25;18.00;;;;;10.86;36.35;99682.72;4855931;28;104536;-85
2021/10/10 05:51:58;;;;;;;;;22.25;19.75;;;;;10.85;36.38;99691.88;4861525;28;102487;-85
2021/10/10 05:54:27;;;;;;;;;24.25;21.75;;;;;10.83;36.29;99694.75;4857474;28;103001;-85
2021/10/10 05:56:59;;;;;;;;;20.25;18.00;;;;;10.82;36.17;99686.81;4852686;28;103726;-85
2021/10/10 05:59:26;;;;;;;;;25.75;22.00;;;;;10.82;36.28;99693.06;4854734;28;109168;-85
2021/10/10 06:01:52;;;;;;;;;20.00;19.75;;;;;10.80;36.54;99691.56;4865989;28;104241;-85
2021/10/10 06:04:20;;;;;;;;;23.25;19.25;;;;;10.80;36.56;99683.44;4847790;28;102427;-85
2021/10/10 06:06:47;;;;;;;;;20.00;17.50;;;;;10.78;36.27;99697.13;4855357;28;102133;-85
2021/10/10 06:09:14;;;;;;;;;22.75;20.75;;;;;10.77;36.68;99694.59;4862397;28;104056;-85
2021/10/10 06:11:40;;;;;;;;;23.50;20.75;;;;;10.74;36.34;99685.84;4850744;28;102892;-86
2021/10/10 06:14:08;;;;;;;;;25.75;21.75;;;;;10.74;36.80;99693.94;4859136;28;102150;-85
2021/10/10 06:16:35;;;;;;;;;19.50;18.25;;;;;10.72;36.84;99687.00;4846738;28;102598;-85
2021/10/10 06:19:03;;;;;;;;;21.00;19.75;;;;;10.71;36.68;99680.78;4837649;28;104548;-85
2021/10/10 06:21:30;;;;;;;;;22.25;19.00;;;;;10.68;36.64;99677.56;4837639;28;102567;-85
2021/10/10 06:23:57;;;;;;;;;24.00;20.25;;;;;10.69;36.70;99690.06;4841959;28;102556;-85
2021/10/10 06:26:24;;;;;;;;;26.75;23.75;;;;;10.68;36.87;99677.56;4842143;28;102282;-85
2021/10/10 06:28:51;;;;;;;;;23.00;19.50;;;;;10.68;36.56;99682.97;4833551;28;104295;-85
2021/10/10 06:31:18;;;;;;;;;26.50;22.00;;;;;10.70;36.92;99683.66;4835397;28;102633;-85
2021/10/10 06:33:45;;;;;;;;;24.50;21.25;;;;;10.69;36.75;99676.53;4841347;28;102583;-85
2021/10/10 06:36:13;;;;;;;;;25.00;19.25;;;;;10.65;37.13;99676.06;4833494;28;102609;-85
2021/10/10 06:38:40;;;;;;;;;21.50;16.50;;;;;10.66;36.98;99683.16;4840511;28;104114;-85
2021/10/10 06:41:07;;;;;;;;;23.25;19.50;;;;;10.64;36.72;99682.47;4843029;28;102476;-85
2021/10/10 06:43:34;;;;;;;;;20.00;19.25;;;;;10.62;36.66;99675.56;4833805;28;102896;-85
2021/10/10 06:46:01;;;;;;;;;23.75;21.50;;;;;10.64;36.87;99684.34;4840113;28;102783;-85
2021/10/10 06:48:28;;;;;;;;;23.00;20.00;;;;;10.61;36.91;99677.44;4837844;28;104453;-85
2021/10/10 06:50:55;;;;;;;;;28.00;21.25;;;;;10.59;36.63;99684.88;4838905;28;103493;-85
2021/10/10 06:53:22;;;;;;;;;25.75;20.25;;;;;10.59;37.05;99682.16;4834860;28;103351;-85
2021/10/10 06:55:49;;;;;;;;;25.25;22.50;;;;;10.58;36.81;99683.16;4839133;28;104192;-85
2021/10/10 06:58:16;;;;;;;;;17.75;12.00;;;;;10.57;37.14;99684.22;4837318;28;104150;-85
2021/10/10 07:00:43;;;;;;;;;28.25;24.25;;;;;10.58;37.11;99679.66;4844112;28;102546;-85
2021/10/10 07:03:11;;;;;;;;;23.25;18.50;;;;;10.58;37.25;99680.47;4837082;28;102349;-85
2021/10/10 07:05:38;;;;;;;;;24.00;21.75;;;;;10.57;37.22;99676.09;4827017;28;102559;-85
2021/10/10 07:08:05;;;;;;;;;26.75;22.25;;;;;10.55;37.03;99680.81;4833449;28;112952;-85
2021/10/10 07:10:32;;;;;;;;;29.25;25.25;;;;;10.56;37.42;99671.69;4833759;28;102532;-85
2021/10/10 07:12:59;;;;;;;;;29.25;23.50;;;;;10.56;37.37;99682.53;4830073;28;102462;-85
2021/10/10 07:15:26;;;;;;;;;22.50;19.75;;;;;10.55;37.13;99688.94;4842107;28;102452;-85
2021/10/10 07:17:58;;;;;;;;;27.00;21.25;;;;;10.54;37.51;99673.72;4836872;28;103976;-85
2021/10/10 07:23:27;;;;;;;;;27.25;22.75;;;;;10.55;37.42;99663.75;4837767;28;103705;-85
2021/10/10 07:25:55;;;;;;;;;15.25;14.75;;;;;10.56;37.40;99665.44;4835492;28;102755;-85
2021/10/10 07:28:22;;;;;;;;;30.00;25.00;;;;;10.57;37.36;99668.00;4834825;28;104041;-85
2021/10/10 07:30:50;;;;;;;;;20.00;16.00;;;;;10.57;37.56;99661.72;4837455;28;103273;-85
2021/10/10 07:33:18;;;;;;;;;29.00;21.25;;;;;10.55;37.66;99661.06;4837313;28;102909;-85
2021/10/10 07:35:48;;;;;;;;;21.00;21.00;;;;;10.52;37.95;99666.81;4819272;28;102442;-85
2021/10/10 07:38:15;;;;;;;;;25.00;21.25;;;;;10.55;37.79;99670.00;4838277;28;104312;-85
2021/10/10 07:40:42;;;;;;;;;24.25;21.25;;;;;10.54;37.87;99673.72;4836539;28;104120;-85
2021/10/10 07:43:09;;;;;;;;;22.75;19.75;;;;;10.55;37.89;99669.16;4834200;28;102295;-85
2021/10/10 07:45:41;;;;;;;;;26.00;23.75;;;;;10.57;38.13;99667.13;4830624;28;102735;-85
2021/10/10 07:48:09;;;;;;;;;21.00;17.75;;;;;10.54;37.92;99670.16;4835870;28;104275;-85
2021/10/10 07:50:37;;;;;;;;;24.75;19.00;;;;;10.52;38.25;99667.66;4831972;28;102684;-85
2021/10/10 07:53:05;;;;;;;;;24.50;21.00;;;;;10.53;37.95;99666.66;4838522;28;101998;-85
2021/10/10 07:55:32;;;;;;;;;20.00;19.00;;;;;10.54;38.14;99662.91;4844502;28;102685;-85
2021/10/10 07:57:59;;;;;;;;;24.25;22.75;;;;;10.54;38.45;99662.91;4832876;28;108883;-85
2021/10/10 08:00:32;;;;;;;;;26.75;22.00;;;;;10.53;38.47;99663.09;4845405;28;102547;-85
2021/10/10 08:03:00;;;;;;;;;22.75;20.75;;;;;10.56;38.44;99660.03;4842632;28;104486;-85
2021/10/10 08:05:28;;;;;;;;;18.00;18.00;;;;;10.58;38.63;99658.03;4823173;28;102735;-85
2021/10/10 08:07:55;;;;;;;;;21.50;18.00;;;;;10.59;38.65;99656.97;4845070;28;104138;-85
2021/10/10 08:10:23;;;;;;;;;27.25;22.50;;;;;10.59;38.74;99651.56;4843385;28;102563;-85
2021/10/10 08:12:49;;;;;;;;;23.50;19.25;;;;;10.60;38.84;99651.41;4839982;28;110749;-85
2021/10/10 08:15:16;;;;;;;;;22.00;20.25;;;;;10.61;39.00;99661.22;4843949;28;102282;-85
2021/10/10 08:17:43;;;;;;;;;25.00;21.75;;;;;10.61;38.90;99650.38;4847369;28;104076;-85
2021/10/10 08:20:11;;;;;;;;;19.25;16.75;;;;;10.63;38.92;99661.84;4860549;28;102547;-85
2021/10/10 08:22:38;;;;;;;;;24.50;22.50;;;;;10.66;38.86;99655.28;4862893;28;102436;-85
2021/10/10 08:25:13;;;;;;;;;19.75;18.50;;;;;10.67;38.94;99646.97;4855284;28;104433;-84
2021/10/10 08:27:41;;;;;;;;;24.00;20.25;;;;;10.67;39.05;99646.97;4838040;28;109544;-85
2021/10/10 08:30:11;;;;;;;;;22.50;20.00;;;;;10.69;39.07;99653.06;4842514;28;102535;-85
2021/10/10 08:32:38;;;;;;;;;23.25;19.75;;;;;10.71;39.23;99647.47;4839420;28;102490;-85
2021/10/10 08:35:08;;;;;;;;;23.25;22.00;;;;;10.71;39.53;99647.47;4857680;28;108521;-85
2021/10/10 08:37:36;;;;;;;;;26.00;21.25;;;;;10.71;39.49;99642.91;4852552;28;107839;-85
2021/10/10 08:40:06;;;;;;;;;22.00;20.50;;;;;10.72;39.89;99641.03;4849976;28;102403;-85
2021/10/10 08:42:37;;;;;;;;;24.00;22.00;;;;;10.75;39.72;99640.69;4853730;28;110456;-85
2021/10/10 08:45:10;;;;;;;;;25.50;21.50;;;;;10.74;39.63;99637.13;4857440;28;102490;-85
2021/10/10 08:47:43;;;;;;;;;24.00;22.25;;;;;10.74;39.73;99637.13;4863295;28;108935;-85
2021/10/10 08:50:15;;;;;;;;;22.50;21.75;;;;;10.77;39.93;99633.22;4856236;28;102583;-85
2021/10/10 08:52:43;;;;;;;;;23.75;20.75;;;;;10.77;40.20;99635.09;4867599;28;102180;-85
2021/10/10 08:55:11;;;;;;;;;20.00;15.25;;;;;10.78;40.07;99631.38;4862639;28;102708;-84
2021/10/10 08:57:38;;;;;;;;;23.25;19.50;;;;;10.79;40.28;99633.91;4855813;28;104364;-84
2021/10/10 09:00:10;;;;;;;;;22.50;20.25;;;;;10.81;40.26;99620.22;4854187;28;102452;-85
2021/10/10 09:02:39;;;;;;;;;23.75;21.50;;;;;10.84;40.20;99622.56;4860619;28;102679;-85
2021/10/10 09:05:07;;;;;;;;;23.50;19.00;;;;;10.85;40.34;99616.13;4861860;28;103007;-85
2021/10/10 09:07:38;;;;;;;;;23.75;19.75;;;;;10.86;40.50;99618.63;4868927;28;108921;-85
2021/10/10 09:10:15;;;;;;;;;21.25;18.00;;;;;10.87;40.34;99614.06;4856184;28;102660;-85
2021/10/10 09:12:43;;;;;;;;;25.25;20.50;;;;;10.88;40.66;99615.75;4851185;28;102460;-85
2021/10/10 09:15:10;;;;;;;;;21.50;17.75;;;;;10.90;40.62;99608.28;4872180;28;102269;-84
2021/10/10 09:17:37;;;;;;;;;18.25;15.75;;;;;10.90;40.67;99609.13;4865047;28;104045;-85
2021/10/10 09:20:05;;;;;;;;;21.25;19.50;;;;;10.93;40.66;99613.38;4843615;28;103343;-85
2021/10/10 09:22:32;;;;;;;;;26.50;22.75;;;;;10.94;40.92;99617.75;4843662;28;102641;-85
2021/10/10 09:25:10;;;;;;;;;23.50;20.00;;;;;10.96;40.86;99607.59;4831023;28;102519;-85
2021/10/10 09:27:37;;;;;;;;;19.50;17.00;;;;;10.96;41.12;99610.28;4857234;28;108906;-85
2021/10/10 09:30:06;;;;;;;;;21.75;18.00;;;;;11.01;40.90;99606.03;4856259;28;102397;-86
2021/10/10 09:32:33;;;;;;;;;19.50;19.25;;;;;11.03;41.04;99609.38;4854664;28;105084;-85
2021/10/10 09:35:03;;;;;;;;;19.25;16.75;;;;;11.07;41.04;99610.75;4862047;28;102564;-86
2021/10/10 09:37:39;;;;;;;;;24.75;18.50;;;;;11.08;40.82;99614.25;4861730;28;104094;-85
2021/10/10 09:40:13;;;;;;;;;25.00;19.50;;;;;11.10;41.07;99614.94;4841761;28;102354;-85
2021/10/10 09:42:45;;;;;;;;;17.50;15.75;;;;;11.10;41.28;99609.53;4854279;28;102691;-85
2021/10/10 09:45:23;;;;;;;;;15.00;15.00;;;;;11.11;41.39;99606.66;4840522;28;102813;-85
2021/10/10 09:48:02;;;;;;;;;18.00;16.50;;;;;11.14;41.34;99605.44;4856870;28;106265;-85
2021/10/10 09:50:33;;;;;;;;;17.25;14.50;;;;;11.16;41.21;99614.22;4837893;28;103763;-85
2021/10/10 09:53:04;;;;;;;;;20.00;16.75;;;;;11.16;41.42;99604.25;4856301;28;102420;-86
2021/10/10 09:55:31;;;;;;;;;18.75;16.00;;;;;11.20;41.38;99610.13;4846403;28;102456;-85
2021/10/10 09:57:58;;;;;;;;;16.75;15.50;;;;;11.19;41.70;99608.44;4848433;28;104368;-85
2021/10/10 10:00:28;;;;;;;;;16.75;13.00;;;;;11.21;41.57;99600.16;4862399;28;103759;-85
2021/10/10 10:03:06;;;;;;;;;18.00;12.25;;;;;11.24;41.68;99605.19;4860516;28;103837;-85
2021/10/10 10:05:33;;;;;;;;;18.00;16.25;;;;;11.25;41.61;99601.47;4862319;28;102625;-85
2021/10/10 10:08:00;;;;;;;;;17.75;15.50;;;;;11.26;41.64;99603.97;4863331;28;105803;-85
2021/10/10 10:10:29;;;;;;;;;16.50;13.50;;;;;11.29;41.55;99603.63;4860614;28;102240;-85
2021/10/10 10:12:57;;;;;;;;;17.50;16.75;;;;;11.31;41.80;99598.88;4842304;28;102428;-85
2021/10/10 10:15:31;;;;;;;;;20.75;17.00;;;;;11.36;41.53;99598.31;4860955;28;102682;-86
2021/10/10 10:17:58;;;;;;;;;15.00;11.75;;;;;11.35;41.46;99600.19;4865282;28;104250;-85
2021/10/10 10:20:27;;;;;;;;;14.50;14.25;;;;;11.38;41.19;99591.72;4854328;28;103742;-85
2021/10/10 10:22:57;;;;;;;;;12.50;12.00;;;;;11.40;41.73;99597.78;4862597;28;104022;-85
2021/10/10 10:25:25;;;;;;;;;16.00;13.00;;;;;11.43;41.30;99597.44;4871292;28;102686;-85
2021/10/10 10:27:52;;;;;;;;;15.00;12.25;;;;;11.45;41.69;99589.94;4860102;28;104248;-85
2021/10/10 10:30:20;;;;;;;;;15.00;13.00;;;;;11.48;41.29;99592.28;4863583;28;104853;-85
2021/10/10 10:32:47;;;;;;;;;13.00;12.25;;;;;11.51;41.37;99591.94;4849126;28;102644;-85
2021/10/10 10:35:16;;;;;;;;;17.00;14.00;;;;;11.51;41.74;99591.94;4860605;28;102576;-86
2021/10/10 10:37:43;;;;;;;;;18.00;13.25;;;;;11.54;41.52;99590.72;4858331;28;104270;-85
2021/10/10 10:40:17;;;;;;;;;17.00;13.00;;;;;11.54;41.86;99586.16;4863264;28;104303;-85
2021/10/10 10:42:47;;;;;;;;;14.50;11.75;;;;;11.56;41.05;99594.09;4863306;28;102453;-85
2021/10/10 10:45:21;;;;;;;;;14.75;12.75;;;;;11.58;41.23;99581.19;4829297;28;102642;-86
2021/10/10 10:47:49;;;;;;;;;11.25;10.25;;;;;11.60;41.36;99579.16;4853560;28;104113;-85
2021/10/10 10:50:21;;;;;;;;;14.25;11.75;;;;;11.61;41.40;99570.88;4844943;28;102310;-85
2021/10/10 10:53:04;;;;;;;;;16.25;13.00;;;;;11.65;41.69;99576.75;4855928;28;103933;-85
2021/10/10 10:55:36;;;;;;;;;14.50;12.50;;;;;11.67;41.39;99579.25;4858572;28;102625;-85
2021/10/10 10:58:05;;;;;;;;;16.75;15.25;;;;;11.69;41.45;99571.81;4856694;28;104082;-85
2021/10/10 11:00:35;;;;;;;;;14.00;12.00;;;;;11.71;41.67;99561.63;4852631;28;103347;-85
2021/10/10 11:03:29;;;;;;;;;11.75;11.25;;;;;11.73;41.54;99563.16;4852188;28;102185;-85
2021/10/10 11:05:57;;;;;;;;;16.50;12.50;;;;;11.76;41.96;99564.63;4859271;28;103257;-85
2021/10/10 11:08:30;;;;;;;;;15.25;12.25;;;;;11.78;41.76;99571.56;4854366;28;105956;-85
2021/10/10 11:11:00;;;;;;;;;11.50;11.50;;;;;11.81;41.26;99570.34;4850647;28;103552;-85
2021/10/10 11:13:37;;;;;;;;;12.75;11.25;;;;;11.83;41.31;99573.72;4858710;28;102478;-85
2021/10/10 11:16:06;;;;;;;;;16.50;12.50;;;;;11.84;41.78;99570.00;4860528;28;102249;-85
2021/10/10 11:18:34;;;;;;;;;12.00;10.50;;;;;11.87;41.48;99569.63;4826731;28;104437;-85